Albertson, New York
Current Conditions -  °F | °C
As of 4:51 PM on Friday 19 Dec 2014 (Local Time) from KJFK Reporting Station
Few Clouds Few Clouds  
Wind Chill: -3°   Ceiling: Unl
Heat Index:   Visibility: 10mi
Dew Point: -7°   Wind: 14mph
Humidity: 54%   Direction: 300°WNW
Pressure: 30.1"   Gusts: NA
Location:  40.77°N, 73.65°W
Report Text: KJFK 192151Z 30012KT 10SM FEW045 02/M07 A3010 RMK AO2 SLP192 T00171067
Loading
Personal Weather Stations






























Interactive Weather Map New forecast layout! Learn more

10-Day Weather Forecast

Advertisements
Track Severe Weather on mobile